createdAt,value
2019-03-24T00:01:47.982Z,9.40
2019-03-24T00:04:25.586Z,9.30
2019-03-24T00:06:56.486Z,9.30
2019-03-24T00:09:27.271Z,9.30
2019-03-24T00:11:58.054Z,9.30
2019-03-24T00:14:29.358Z,9.30
2019-03-24T00:17:00.310Z,9.30
2019-03-24T00:19:31.114Z,9.20
2019-03-24T00:22:01.913Z,9.20
2019-03-24T00:24:32.691Z,9.20
2019-03-24T00:27:03.642Z,9.20
2019-03-24T00:29:34.561Z,9.10
2019-03-24T00:32:05.426Z,9.10
2019-03-24T00:34:36.234Z,9.10
2019-03-24T00:37:08.036Z,9.00
2019-03-24T00:39:38.989Z,9.00
2019-03-24T00:42:09.878Z,8.90
2019-03-24T00:44:40.654Z,8.90
2019-03-24T00:47:11.530Z,8.80
2019-03-24T00:49:42.311Z,8.80
2019-03-24T00:52:13.130Z,8.80
2019-03-24T00:54:43.965Z,8.80
2019-03-24T00:57:14.817Z,8.80
2019-03-24T00:59:45.650Z,8.80
2019-03-24T01:02:16.817Z,8.80
2019-03-24T01:04:47.832Z,8.80
2019-03-24T01:07:18.814Z,8.80
2019-03-24T01:09:49.674Z,8.70
2019-03-24T01:12:20.542Z,8.70
2019-03-24T01:14:51.245Z,8.60
2019-03-24T01:17:22.327Z,8.60
2019-03-24T01:19:53.183Z,8.50
2019-03-24T01:22:23.966Z,8.50
2019-03-24T01:24:54.714Z,8.50
2019-03-24T01:27:26.614Z,8.50
2019-03-24T01:29:57.562Z,8.40
2019-03-24T01:32:28.350Z,8.40
2019-03-24T01:34:59.157Z,8.40
2019-03-24T01:37:29.990Z,8.40
2019-03-24T01:40:00.777Z,8.30
2019-03-24T01:42:31.630Z,8.30
2019-03-24T01:45:02.377Z,8.30
2019-03-24T01:47:33.607Z,8.30
2019-03-24T01:50:04.441Z,8.20
2019-03-24T01:52:35.218Z,8.20
2019-03-24T01:55:06.010Z,8.20
2019-03-24T01:57:36.801Z,8.20
2019-03-24T02:00:07.906Z,8.10
2019-03-24T02:02:38.821Z,8.10
2019-03-24T02:05:09.731Z,8.10
2019-03-24T02:07:40.571Z,8.00
2019-03-24T02:10:11.418Z,8.00
2019-03-24T02:12:42.325Z,8.00
2019-03-24T02:15:13.174Z,8.00
2019-03-24T02:17:44.098Z,8.00
2019-03-24T02:20:14.918Z,8.00
2019-03-24T02:22:45.737Z,8.00
2019-03-24T02:25:16.516Z,7.90
2019-03-24T02:27:47.377Z,7.90
2019-03-24T02:30:18.371Z,7.90
2019-03-24T02:32:49.198Z,7.90
2019-03-24T02:35:20.074Z,7.80
2019-03-24T02:37:51.006Z,7.80
2019-03-24T02:40:21.799Z,7.80
2019-03-24T02:42:52.790Z,7.70
2019-03-24T02:45:23.620Z,7.70
2019-03-24T02:47:59.949Z,7.60
2019-03-24T02:50:30.757Z,7.60
2019-03-24T02:53:02.651Z,7.60
2019-03-24T02:55:33.598Z,7.50
2019-03-24T02:58:04.462Z,7.50
2019-03-24T03:00:35.350Z,7.50
2019-03-24T03:03:06.385Z,7.50
2019-03-24T03:05:37.287Z,7.40
2019-03-24T03:08:08.255Z,7.40
2019-03-24T03:10:39.052Z,7.30
2019-03-24T03:13:09.820Z,7.30
2019-03-24T03:15:40.639Z,7.20
2019-03-24T03:18:11.535Z,7.20
2019-03-24T03:20:42.368Z,7.10
2019-03-24T03:23:13.265Z,7.10
2019-03-24T03:25:44.054Z,7.10
2019-03-24T03:28:16.205Z,7.00
2019-03-24T03:30:47.035Z,7.00
2019-03-24T03:33:17.860Z,6.90
2019-03-24T03:35:48.732Z,6.90
2019-03-24T03:38:19.605Z,6.90
2019-03-24T03:40:51.962Z,6.80
2019-03-24T03:43:24.024Z,6.80
2019-03-24T03:45:54.974Z,6.80
2019-03-24T03:48:27.124Z,6.80
2019-03-24T03:50:58.096Z,6.80
2019-03-24T03:53:28.916Z,6.80
2019-03-24T03:55:59.696Z,6.80
2019-03-24T03:58:30.528Z,6.80
2019-03-24T04:01:01.347Z,6.70
2019-03-24T04:03:32.221Z,6.70
2019-03-24T04:06:02.962Z,6.70
2019-03-24T04:08:33.860Z,6.70
2019-03-24T04:11:04.695Z,6.70
2019-03-24T04:13:35.591Z,6.70
2019-03-24T04:16:06.417Z,6.70
2019-03-24T04:18:37.228Z,6.70
2019-03-24T04:21:08.131Z,6.70
2019-03-24T04:23:39.049Z,6.70
2019-03-24T04:26:09.849Z,6.60
2019-03-24T04:28:40.705Z,6.60
2019-03-24T04:31:11.674Z,6.60
2019-03-24T04:33:42.456Z,6.50
2019-03-24T04:36:13.217Z,6.50
2019-03-24T04:38:44.147Z,6.40
2019-03-24T04:41:15.015Z,6.40
2019-03-24T04:43:46.757Z,6.30
2019-03-24T04:46:17.522Z,6.30
2019-03-24T04:48:48.427Z,6.30
2019-03-24T04:51:19.303Z,6.30
2019-03-24T04:53:50.094Z,6.20
2019-03-24T04:56:20.906Z,6.20
2019-03-24T04:58:51.723Z,6.20
2019-03-24T05:01:22.591Z,6.20
2019-03-24T05:03:53.593Z,6.20
2019-03-24T05:06:24.505Z,6.20
2019-03-24T05:08:55.353Z,6.30
2019-03-24T05:11:26.187Z,6.40
2019-03-24T05:13:58.114Z,6.50
2019-03-24T05:16:28.930Z,6.60
2019-03-24T05:18:59.779Z,6.80
2019-03-24T05:21:30.626Z,7.00
2019-03-24T05:24:01.453Z,7.20
2019-03-24T05:26:32.318Z,7.50
2019-03-24T05:29:03.166Z,7.70
2019-03-24T05:31:33.955Z,7.90
2019-03-24T05:34:04.725Z,8.10
2019-03-24T05:36:36.140Z,8.30
2019-03-24T05:39:07.798Z,8.50
2019-03-24T05:41:38.561Z,8.70
2019-03-24T05:44:09.435Z,9.00
2019-03-24T05:46:40.215Z,9.30
2019-03-24T05:49:11.057Z,9.60
2019-03-24T05:51:41.900Z,10.00
2019-03-24T05:54:12.820Z,10.40
2019-03-24T05:56:44.620Z,10.80
2019-03-24T05:59:15.472Z,11.20
2019-03-24T06:01:46.189Z,11.60
2019-03-24T06:04:17.286Z,12.10
2019-03-24T06:06:48.090Z,12.50
2019-03-24T06:09:21.431Z,12.90
2019-03-24T06:11:52.271Z,13.30
2019-03-24T06:14:23.130Z,13.80
2019-03-24T06:16:54.007Z,14.10
2019-03-24T06:19:24.886Z,14.30
2019-03-24T06:21:55.700Z,14.60
2019-03-24T06:24:33.054Z,14.90
2019-03-24T06:27:04.105Z,15.20
2019-03-24T06:29:34.919Z,15.50
2019-03-24T06:32:05.678Z,15.80
2019-03-24T06:34:44.706Z,16.10
2019-03-24T06:37:16.838Z,16.50
2019-03-24T06:39:47.980Z,17.00
2019-03-24T06:42:19.225Z,17.40
2019-03-24T06:44:50.097Z,17.80
2019-03-24T06:47:21.023Z,18.30
2019-03-24T06:49:53.118Z,18.70
2019-03-24T06:52:24.190Z,19.10
2019-03-24T06:54:55.059Z,19.50
2019-03-24T06:57:25.908Z,19.90
2019-03-24T06:59:57.085Z,20.30
2019-03-24T07:02:33.312Z,20.70
2019-03-24T07:05:04.290Z,21.10
2019-03-24T07:07:35.217Z,21.40
2019-03-24T07:10:08.074Z,21.70
2019-03-24T07:12:39.249Z,21.90
2019-03-24T07:15:13.794Z,22.20
2019-03-24T07:17:44.895Z,22.50
2019-03-24T07:20:15.835Z,22.70
2019-03-24T07:22:46.794Z,23.10
2019-03-24T07:25:17.734Z,23.40
2019-03-24T07:28:01.006Z,23.80
2019-03-24T07:30:31.873Z,24.10
2019-03-24T07:33:02.710Z,24.40
2019-03-24T07:35:33.740Z,24.70
2019-03-24T07:38:04.479Z,25.00
2019-03-24T07:40:38.783Z,25.20
2019-03-24T07:43:09.790Z,25.40
2019-03-24T07:45:40.752Z,25.70
2019-03-24T07:48:19.092Z,26.10
2019-03-24T07:50:44.944Z,26.30
2019-03-24T07:53:15.891Z,26.50
2019-03-24T07:55:46.880Z,26.80
2019-03-24T07:58:17.738Z,27.00
2019-03-24T08:00:50.850Z,27.30
2019-03-24T08:03:21.938Z,27.60
2019-03-24T08:05:52.876Z,27.90
2019-03-24T08:08:25.039Z,28.10
2019-03-24T08:10:56.241Z,28.30
2019-03-24T08:13:27.326Z,28.50
2019-03-24T08:15:58.241Z,28.70
2019-03-24T08:18:30.191Z,28.90
2019-03-24T08:21:01.319Z,29.10
2019-03-24T08:23:32.151Z,29.30
2019-03-24T08:26:03.246Z,29.50
2019-03-24T08:28:34.078Z,29.70
2019-03-24T08:31:04.946Z,30.00
2019-03-24T08:33:35.809Z,30.20
2019-03-24T08:36:07.028Z,30.30
2019-03-24T08:38:37.843Z,30.50
2019-03-24T08:41:08.714Z,30.60
2019-03-24T08:43:39.434Z,30.80
2019-03-24T08:46:10.457Z,31.00
2019-03-24T08:48:41.412Z,31.30
2019-03-24T08:51:12.836Z,31.40
2019-03-24T08:53:43.754Z,31.70
2019-03-24T08:56:14.623Z,31.90
2019-03-24T08:58:45.431Z,32.10
2019-03-24T09:01:16.303Z,32.20
2019-03-24T09:03:48.314Z,32.40
2019-03-24T09:06:24.908Z,32.40
2019-03-24T09:08:55.699Z,32.50
2019-03-24T09:11:31.531Z,32.40
2019-03-24T09:13:59.955Z,32.30
2019-03-24T09:16:30.915Z,32.30
2019-03-24T09:19:01.703Z,32.30
2019-03-24T09:21:33.659Z,32.20
2019-03-24T09:24:04.593Z,32.60
2019-03-24T09:26:35.440Z,32.80
2019-03-24T09:29:08.029Z,33.00
2019-03-24T09:31:42.083Z,33.00
2019-03-24T09:34:12.848Z,33.30
2019-03-24T09:36:45.690Z,33.20
2019-03-24T09:39:20.592Z,33.40
2019-03-24T09:41:51.695Z,33.60
2019-03-24T09:44:22.703Z,33.80
2019-03-24T09:46:53.818Z,34.00
2019-03-24T09:49:30.058Z,34.10
2019-03-24T09:52:01.490Z,34.20
2019-03-24T09:54:32.331Z,34.50
2019-03-24T09:57:03.853Z,34.80
2019-03-24T09:59:35.055Z,34.90
2019-03-24T10:02:05.994Z,34.90
2019-03-24T10:04:36.913Z,35.00
2019-03-24T10:07:13.079Z,35.20
2019-03-24T10:09:46.341Z,35.20
2019-03-24T10:12:17.683Z,35.00
2019-03-24T10:14:48.521Z,35.20
2019-03-24T10:17:19.423Z,35.40
2019-03-24T10:19:50.236Z,35.40
2019-03-24T10:22:21.095Z,35.40
2019-03-24T10:24:54.447Z,35.50
2019-03-24T10:27:25.310Z,35.60
2019-03-24T10:29:56.329Z,35.80
2019-03-24T10:32:27.239Z,35.90
2019-03-24T10:34:58.067Z,36.00
2019-03-24T10:37:28.999Z,36.10
2019-03-24T10:39:59.975Z,36.30
2019-03-24T10:42:30.810Z,36.30
2019-03-24T10:45:01.609Z,36.20
2019-03-24T10:47:32.690Z,36.20
2019-03-24T10:50:03.547Z,36.30
2019-03-24T10:52:34.429Z,36.40
2019-03-24T10:55:06.091Z,36.60
2019-03-24T10:57:37.007Z,36.60
2019-03-24T11:00:08.656Z,36.70
2019-03-24T11:02:39.655Z,36.70
2019-03-24T11:05:11.760Z,36.70
2019-03-24T11:07:43.017Z,36.80
2019-03-24T11:10:14.055Z,36.70
2019-03-24T11:12:44.957Z,36.70
2019-03-24T11:15:15.843Z,36.90
2019-03-24T11:17:46.860Z,37.00
2019-03-24T11:20:17.750Z,37.10
2019-03-24T11:22:48.875Z,36.90
2019-03-24T11:25:20.762Z,37.00
2019-03-24T11:27:51.698Z,36.80
2019-03-24T11:30:22.779Z,36.80
2019-03-24T11:32:53.822Z,37.00
2019-03-24T11:35:24.654Z,37.00
2019-03-24T11:37:55.658Z,37.10
2019-03-24T11:40:27.518Z,37.00
2019-03-24T11:42:59.543Z,37.20
2019-03-24T11:45:30.370Z,37.20
2019-03-24T11:48:01.214Z,37.30
2019-03-24T11:50:32.278Z,37.30
2019-03-24T11:53:03.164Z,37.40
2019-03-24T11:55:34.055Z,37.40
2019-03-24T11:58:06.890Z,37.30
2019-03-24T12:00:40.006Z,37.40
2019-03-24T12:03:11.000Z,37.40
2019-03-24T12:05:41.832Z,37.20
2019-03-24T12:08:12.800Z,37.10
2019-03-24T12:10:43.603Z,37.10
2019-03-24T12:13:14.664Z,37.00
2019-03-24T12:15:45.461Z,37.00
2019-03-24T12:18:17.565Z,37.00
2019-03-24T12:20:48.463Z,36.80
2019-03-24T12:23:21.046Z,36.90
2019-03-24T12:25:52.125Z,36.90
2019-03-24T12:28:23.139Z,37.10
2019-03-24T12:30:54.135Z,37.30
2019-03-24T12:33:25.139Z,37.30
2019-03-24T12:35:56.470Z,37.60
2019-03-24T12:38:27.424Z,37.80
2019-03-24T12:40:58.810Z,38.10
2019-03-24T12:43:29.794Z,38.20
2019-03-24T12:46:01.801Z,38.00
2019-03-24T12:48:32.845Z,37.80
2019-03-24T12:51:04.823Z,37.70
2019-03-24T12:53:35.796Z,37.70
2019-03-24T12:56:09.581Z,37.80
2019-03-24T12:58:40.575Z,37.80
2019-03-24T13:01:12.766Z,37.60
2019-03-24T13:03:43.961Z,36.90
2019-03-24T13:06:14.867Z,36.40
2019-03-24T13:08:45.988Z,36.30
2019-03-24T13:11:17.075Z,36.20
2019-03-24T13:13:48.276Z,35.60
2019-03-24T13:16:19.416Z,35.10
2019-03-24T13:19:25.283Z,34.40
2019-03-24T13:21:59.016Z,33.60
2019-03-24T13:24:30.110Z,32.50
2019-03-24T13:27:01.845Z,31.90
2019-03-24T13:29:33.405Z,31.40
2019-03-24T13:32:04.281Z,31.10
2019-03-24T13:34:35.486Z,30.90
2019-03-24T13:37:06.601Z,30.50
2019-03-24T13:39:37.449Z,30.00
2019-03-24T13:42:09.705Z,29.80
2019-03-24T13:44:41.516Z,30.20
2019-03-24T13:47:12.603Z,30.90
2019-03-24T13:49:43.892Z,31.70
2019-03-24T13:52:15.005Z,32.50
2019-03-24T13:54:45.942Z,33.20
2019-03-24T13:57:16.807Z,34.00
2019-03-24T13:59:47.755Z,34.70
2019-03-24T14:02:18.816Z,35.40
2019-03-24T14:04:49.785Z,35.80
2019-03-24T14:07:20.673Z,36.20
2019-03-24T14:09:51.841Z,36.50
2019-03-24T14:12:22.682Z,36.60
2019-03-24T14:14:53.779Z,36.60
2019-03-24T14:17:30.326Z,36.60
2019-03-24T14:20:01.386Z,36.60
2019-03-24T14:22:32.287Z,36.70
2019-03-24T14:25:03.106Z,36.80
2019-03-24T14:27:34.315Z,36.80
2019-03-24T14:30:05.390Z,36.70
2019-03-24T14:32:36.274Z,36.70
2019-03-24T14:35:07.303Z,36.40
2019-03-24T14:37:39.175Z,36.30
2019-03-24T14:40:10.344Z,36.40
2019-03-24T14:42:41.364Z,36.40
2019-03-24T14:45:12.587Z,36.40
2019-03-24T14:47:43.545Z,36.30
2019-03-24T14:50:14.626Z,36.00
2019-03-24T14:52:45.573Z,35.70
2019-03-24T14:55:16.781Z,35.30
2019-03-24T14:57:47.701Z,34.90
2019-03-24T15:00:23.739Z,34.50
2019-03-24T15:02:55.133Z,34.10
2019-03-24T15:05:26.390Z,33.50
2019-03-24T15:07:57.446Z,32.70
2019-03-24T15:10:28.300Z,31.80
2019-03-24T15:12:59.237Z,31.00
2019-03-24T15:15:30.023Z,30.10
2019-03-24T15:18:00.909Z,29.30
2019-03-24T15:20:31.906Z,28.50
2019-03-24T15:23:02.931Z,27.70
2019-03-24T15:25:33.932Z,27.00
2019-03-24T15:28:05.624Z,26.40
2019-03-24T15:30:38.753Z,25.80
2019-03-24T15:33:10.526Z,25.30
2019-03-24T15:35:41.893Z,24.80
2019-03-24T15:38:12.801Z,24.50
2019-03-24T15:40:43.677Z,24.10
2019-03-24T15:43:14.594Z,23.80
2019-03-24T15:45:46.914Z,23.50
2019-03-24T15:48:19.117Z,23.20
2019-03-24T15:50:50.035Z,23.00
2019-03-24T15:53:31.394Z,22.70
2019-03-24T15:56:02.246Z,22.50
2019-03-24T15:58:33.017Z,22.20
2019-03-24T16:01:03.880Z,22.10
2019-03-24T16:03:35.014Z,21.90
2019-03-24T16:06:05.981Z,21.60
2019-03-24T16:08:37.902Z,21.50
2019-03-24T16:11:08.805Z,21.30
2019-03-24T16:13:39.590Z,21.20
2019-03-24T16:16:10.506Z,21.00
2019-03-24T16:18:41.263Z,20.90
2019-03-24T16:21:12.106Z,20.80
2019-03-24T16:23:42.895Z,20.60
2019-03-24T16:26:13.739Z,20.50
2019-03-24T16:28:44.577Z,20.30
2019-03-24T16:31:15.428Z,20.20
2019-03-24T16:33:46.318Z,20.10
2019-03-24T16:36:17.154Z,19.90
2019-03-24T16:38:49.186Z,19.80
2019-03-24T16:41:20.219Z,19.60
2019-03-24T16:43:51.103Z,19.50
2019-03-24T16:46:22.010Z,19.30
2019-03-24T16:48:52.900Z,19.20
2019-03-24T16:51:23.956Z,19.00
2019-03-24T16:53:54.815Z,18.80
2019-03-24T16:56:26.740Z,18.70
2019-03-24T16:58:57.582Z,18.50
2019-03-24T17:01:28.541Z,18.40
2019-03-24T17:03:59.323Z,18.20
2019-03-24T17:06:30.439Z,18.10
2019-03-24T17:09:01.317Z,17.90
2019-03-24T17:11:33.309Z,17.80
2019-03-24T17:14:04.237Z,17.70
2019-03-24T17:16:35.569Z,17.50
2019-03-24T17:19:06.452Z,17.40
2019-03-24T17:21:37.367Z,17.30
2019-03-24T17:24:09.240Z,17.10
2019-03-24T17:26:40.157Z,17.00
2019-03-24T17:29:11.005Z,16.90
2019-03-24T17:31:42.026Z,16.80
2019-03-24T17:34:12.949Z,16.70
2019-03-24T17:36:43.996Z,16.60
2019-03-24T17:39:17.939Z,16.50
2019-03-24T17:41:48.942Z,16.40
2019-03-24T17:44:24.454Z,16.20
2019-03-24T17:46:56.307Z,16.20
2019-03-24T17:49:27.231Z,16.10
2019-03-24T17:52:00.898Z,16.00
2019-03-24T17:54:30.543Z,15.90
2019-03-24T17:57:01.562Z,15.80
2019-03-24T17:59:32.521Z,15.70
2019-03-24T18:02:13.884Z,15.60
2019-03-24T18:04:36.934Z,15.50
2019-03-24T18:07:07.918Z,15.50
2019-03-24T18:09:38.929Z,15.40
2019-03-24T18:12:10.858Z,15.30
2019-03-24T18:14:41.665Z,15.20
2019-03-24T18:17:12.606Z,15.10
2019-03-24T18:19:43.486Z,15.10
2019-03-24T18:22:14.378Z,15.00
2019-03-24T18:24:45.274Z,14.90
2019-03-24T18:27:16.273Z,14.90
2019-03-24T18:29:47.346Z,14.80
2019-03-24T18:32:18.214Z,14.80
2019-03-24T18:34:49.096Z,14.80
2019-03-24T18:37:20.086Z,14.70
2019-03-24T18:39:50.986Z,14.70
2019-03-24T18:42:21.863Z,14.70
2019-03-24T18:45:00.461Z,14.60
2019-03-24T18:47:41.088Z,14.60
2019-03-24T18:50:11.819Z,14.50
2019-03-24T18:52:44.654Z,14.50
2019-03-24T18:55:16.095Z,14.40
2019-03-24T18:57:46.962Z,14.40
2019-03-24T19:00:18.423Z,14.40
2019-03-24T19:02:49.294Z,14.40
2019-03-24T19:05:20.289Z,14.40
2019-03-24T19:07:51.323Z,14.40
2019-03-24T19:10:22.375Z,14.40
2019-03-24T19:12:53.333Z,14.40
2019-03-24T19:15:24.313Z,14.40
2019-03-24T19:17:57.384Z,14.40
2019-03-24T19:20:28.338Z,14.40
2019-03-24T19:22:59.246Z,14.40
2019-03-24T19:25:30.343Z,14.40
2019-03-24T19:28:01.356Z,14.40
2019-03-24T19:30:38.014Z,14.30
2019-03-24T19:33:09.000Z,14.30
2019-03-24T19:35:39.854Z,14.20
2019-03-24T19:38:13.967Z,14.20
2019-03-24T19:40:57.442Z,14.20
2019-03-24T19:43:32.117Z,14.20
2019-03-24T19:46:03.570Z,14.10
2019-03-24T19:48:34.881Z,14.10
2019-03-24T19:51:07.199Z,14.10
2019-03-24T19:53:38.235Z,14.00
2019-03-24T19:56:09.102Z,14.00
2019-03-24T19:58:41.014Z,14.00
2019-03-24T20:01:11.925Z,13.90
2019-03-24T20:03:43.569Z,13.90
2019-03-24T20:06:14.653Z,13.90
2019-03-24T20:08:46.754Z,13.80
2019-03-24T20:11:18.793Z,13.80
2019-03-24T20:13:50.812Z,13.80
2019-03-24T20:16:22.169Z,13.70
2019-03-24T20:18:53.118Z,13.70
2019-03-24T20:21:24.314Z,13.70
2019-03-24T20:24:09.311Z,13.70
2019-03-24T20:26:40.629Z,13.60
2019-03-24T20:29:12.942Z,13.60
2019-03-24T20:31:44.361Z,13.50
2019-03-24T20:34:16.040Z,13.50
2019-03-24T20:36:47.309Z,13.50
2019-03-24T20:39:18.671Z,13.40
2019-03-24T20:41:49.983Z,13.40
2019-03-24T20:44:24.714Z,13.40
2019-03-24T20:46:55.559Z,13.30
2019-03-24T20:49:26.534Z,13.30
2019-03-24T20:51:57.522Z,13.30
2019-03-24T20:54:28.521Z,13.30
2019-03-24T20:57:18.896Z,13.30
2019-03-24T20:59:52.230Z,13.20
2019-03-24T21:02:23.490Z,13.20
2019-03-24T21:04:54.608Z,13.20
2019-03-24T21:07:25.653Z,13.20
2019-03-24T21:09:56.957Z,13.10
2019-03-24T21:12:28.021Z,13.10
2019-03-24T21:14:59.049Z,13.10
2019-03-24T21:17:29.902Z,13.10
2019-03-24T21:20:01.874Z,13.00
2019-03-24T21:22:32.914Z,13.00
2019-03-24T21:27:51.902Z,12.90
2019-03-24T21:30:50.089Z,12.90
2019-03-24T21:33:21.802Z,12.80
2019-03-24T21:35:52.943Z,12.70
2019-03-24T21:38:24.105Z,12.70
2019-03-24T21:40:55.200Z,12.70
2019-03-24T21:43:26.595Z,12.70
2019-03-24T21:45:57.540Z,12.70
2019-03-24T21:48:28.523Z,12.70
2019-03-24T21:51:00.076Z,12.70
2019-03-24T21:53:40.267Z,12.70
2019-03-24T21:56:03.962Z,12.80
2019-03-24T21:58:35.247Z,12.80
2019-03-24T22:01:06.081Z,12.70
2019-03-24T22:03:37.104Z,12.70
2019-03-24T22:06:08.034Z,12.70
2019-03-24T22:08:38.933Z,12.60
2019-03-24T22:11:09.891Z,12.60
2019-03-24T22:13:40.776Z,12.50
2019-03-24T22:16:11.657Z,12.40
2019-03-24T22:18:42.669Z,12.40
2019-03-24T22:21:14.853Z,12.30
2019-03-24T22:23:52.228Z,12.30
2019-03-24T22:26:18.352Z,12.20
2019-03-24T22:28:49.215Z,12.20
2019-03-24T22:31:20.173Z,12.10
2019-03-24T22:33:51.231Z,12.10
2019-03-24T22:36:22.103Z,12.10
2019-03-24T22:38:53.142Z,12.10
2019-03-24T22:41:24.251Z,12.10
2019-03-24T22:43:55.197Z,12.10
2019-03-24T22:46:26.049Z,12.10
2019-03-24T22:48:59.084Z,12.10
2019-03-24T22:51:35.287Z,12.00
2019-03-24T22:54:07.371Z,12.00
2019-03-24T22:56:39.469Z,12.00
2019-03-24T22:59:10.395Z,12.00
2019-03-24T23:01:44.455Z,12.00
2019-03-24T23:04:17.012Z,12.10
2019-03-24T23:06:53.153Z,12.10
2019-03-24T23:09:24.742Z,12.10
2019-03-24T23:11:55.712Z,12.20
2019-03-24T23:14:29.540Z,12.20
2019-03-24T23:17:02.081Z,12.20
2019-03-24T23:19:35.654Z,12.30
2019-03-24T23:22:06.993Z,12.30
2019-03-24T23:24:38.045Z,12.30
2019-03-24T23:27:10.024Z,12.30
2019-03-24T23:29:42.377Z,12.30
2019-03-24T23:32:13.248Z,12.30
2019-03-24T23:34:49.046Z,12.30
2019-03-24T23:37:22.954Z,12.20
2019-03-24T23:39:54.333Z,12.20
2019-03-24T23:42:25.700Z,12.20
2019-03-24T23:44:56.765Z,12.10
2019-03-24T23:47:27.798Z,12.10
2019-03-24T23:49:58.682Z,12.00
2019-03-24T23:52:29.599Z,11.90
2019-03-24T23:55:00.490Z,11.80
2019-03-24T23:57:31.479Z,11.70
